sensor_id;sensor_type;location;lat;lon;timestamp;P1;durP1;ratioP1;P2;durP2;ratioP2
52031;SDS011;38044;45.148;39.604;2022-09-01T00:02:24;25.30;;;15.82;;
52031;SDS011;38044;45.148;39.604;2022-09-01T00:04:52;25.77;;;16.45;;
52031;SDS011;38044;45.148;39.604;2022-09-01T00:07:23;25.50;;;16.35;;
52031;SDS011;38044;45.148;39.604;2022-09-01T00:09:57;24.75;;;16.77;;
52031;SDS011;38044;45.148;39.604;2022-09-01T00:12:24;28.10;;;17.30;;
52031;SDS011;38044;45.148;39.604;2022-09-01T00:14:50;27.58;;;16.50;;
52031;SDS011;38044;45.148;39.604;2022-09-01T00:17:17;21.48;;;15.77;;
52031;SDS011;38044;45.148;39.604;2022-09-01T00:19:42;25.73;;;17.38;;
52031;SDS011;38044;45.148;39.604;2022-09-01T00:22:08;25.13;;;17.00;;
52031;SDS011;38044;45.148;39.604;2022-09-01T00:24:34;29.48;;;16.92;;
52031;SDS011;38044;45.148;39.604;2022-09-01T00:27:01;26.48;;;16.88;;
52031;SDS011;38044;45.148;39.604;2022-09-01T00:29:27;28.63;;;16.88;;
52031;SDS011;38044;45.148;39.604;2022-09-01T00:31:53;27.70;;;17.25;;
52031;SDS011;38044;45.148;39.604;2022-09-01T00:34:20;29.38;;;16.73;;
52031;SDS011;38044;45.148;39.604;2022-09-01T00:36:46;25.77;;;17.67;;
52031;SDS011;38044;45.148;39.604;2022-09-01T00:39:13;27.67;;;17.75;;
52031;SDS011;38044;45.148;39.604;2022-09-01T00:41:39;27.30;;;17.40;;
52031;SDS011;38044;45.148;39.604;2022-09-01T00:44:09;28.45;;;17.48;;
52031;SDS011;38044;45.148;39.604;2022-09-01T00:46:39;29.83;;;18.40;;
52031;SDS011;38044;45.148;39.604;2022-09-01T00:49:08;30.92;;;17.85;;
52031;SDS011;38044;45.148;39.604;2022-09-01T00:51:40;30.65;;;17.65;;
52031;SDS011;38044;45.148;39.604;2022-09-01T00:54:11;29.83;;;19.23;;
52031;SDS011;38044;45.148;39.604;2022-09-01T00:56:40;26.85;;;16.95;;
52031;SDS011;38044;45.148;39.604;2022-09-01T00:59:07;23.75;;;17.50;;
52031;SDS011;38044;45.148;39.604;2022-09-01T01:01:35;27.85;;;18.10;;
52031;SDS011;38044;45.148;39.604;2022-09-01T01:04:05;24.65;;;18.63;;
52031;SDS011;38044;45.148;39.604;2022-09-01T01:06:48;25.67;;;17.50;;
52031;SDS011;38044;45.148;39.604;2022-09-01T01:09:23;29.65;;;19.75;;
52031;SDS011;38044;45.148;39.604;2022-09-01T01:11:51;26.98;;;18.40;;
52031;SDS011;38044;45.148;39.604;2022-09-01T01:14:17;34.42;;;19.45;;
52031;SDS011;38044;45.148;39.604;2022-09-01T01:16:47;26.50;;;18.90;;
52031;SDS011;38044;45.148;39.604;2022-09-01T01:22:12;26.55;;;17.85;;
52031;SDS011;38044;45.148;39.604;2022-09-01T01:25:02;23.48;;;18.00;;
52031;SDS011;38044;45.148;39.604;2022-09-01T01:27:32;28.85;;;18.23;;
52031;SDS011;38044;45.148;39.604;2022-09-01T01:30:00;24.77;;;16.05;;
52031;SDS011;38044;45.148;39.604;2022-09-01T01:32:28;25.27;;;16.77;;
52031;SDS011;38044;45.148;39.604;2022-09-01T01:34:54;31.27;;;16.55;;
52031;SDS011;38044;45.148;39.604;2022-09-01T01:37:21;23.00;;;17.00;;
52031;SDS011;38044;45.148;39.604;2022-09-01T01:39:49;29.60;;;17.55;;
52031;SDS011;38044;45.148;39.604;2022-09-01T01:42:16;29.55;;;17.67;;
52031;SDS011;38044;45.148;39.604;2022-09-01T01:44:42;31.27;;;17.65;;
52031;SDS011;38044;45.148;39.604;2022-09-01T01:47:10;27.23;;;16.52;;
52031;SDS011;38044;45.148;39.604;2022-09-01T01:49:38;26.88;;;17.15;;
52031;SDS011;38044;45.148;39.604;2022-09-01T01:52:08;28.65;;;17.75;;
52031;SDS011;38044;45.148;39.604;2022-09-01T01:54:38;23.95;;;17.55;;
52031;SDS011;38044;45.148;39.604;2022-09-01T01:57:05;31.48;;;18.42;;
52031;SDS011;38044;45.148;39.604;2022-09-01T01:59:32;24.83;;;17.10;;
52031;SDS011;38044;45.148;39.604;2022-09-01T02:01:58;31.38;;;18.08;;
52031;SDS011;38044;45.148;39.604;2022-09-01T02:04:27;26.85;;;17.95;;
52031;SDS011;38044;45.148;39.604;2022-09-01T02:06:57;32.95;;;18.23;;
52031;SDS011;38044;45.148;39.604;2022-09-01T02:09:23;31.88;;;17.38;;
52031;SDS011;38044;45.148;39.604;2022-09-01T02:11:49;30.95;;;18.27;;
52031;SDS011;38044;45.148;39.604;2022-09-01T02:14:21;29.83;;;20.75;;
52031;SDS011;38044;45.148;39.604;2022-09-01T02:16:47;28.73;;;19.88;;
52031;SDS011;38044;45.148;39.604;2022-09-01T02:19:13;31.92;;;19.85;;
52031;SDS011;38044;45.148;39.604;2022-09-01T02:21:43;25.55;;;16.52;;
52031;SDS011;38044;45.148;39.604;2022-09-01T02:24:13;22.63;;;16.38;;
52031;SDS011;38044;45.148;39.604;2022-09-01T02:26:40;28.60;;;16.95;;
52031;SDS011;38044;45.148;39.604;2022-09-01T02:29:13;26.08;;;15.60;;
52031;SDS011;38044;45.148;39.604;2022-09-01T02:31:46;29.73;;;16.52;;
52031;SDS011;38044;45.148;39.604;2022-09-01T02:34:15;44.22;;;16.77;;
52031;SDS011;38044;45.148;39.604;2022-09-01T02:36:43;27.40;;;16.90;;
52031;SDS011;38044;45.148;39.604;2022-09-01T02:39:12;31.98;;;18.42;;
52031;SDS011;38044;45.148;39.604;2022-09-01T02:42:01;27.83;;;16.02;;
52031;SDS011;38044;45.148;39.604;2022-09-01T02:44:27;30.13;;;16.13;;
52031;SDS011;38044;45.148;39.604;2022-09-01T02:46:55;28.80;;;17.67;;
52031;SDS011;38044;45.148;39.604;2022-09-01T02:49:22;26.45;;;14.63;;
52031;SDS011;38044;45.148;39.604;2022-09-01T02:51:53;31.55;;;15.52;;
52031;SDS011;38044;45.148;39.604;2022-09-01T02:54:22;23.73;;;15.50;;
52031;SDS011;38044;45.148;39.604;2022-09-01T02:56:48;35.08;;;15.73;;
52031;SDS011;38044;45.148;39.604;2022-09-01T02:59:19;36.25;;;15.98;;
52031;SDS011;38044;45.148;39.604;2022-09-01T03:01:47;24.17;;;15.15;;
52031;SDS011;38044;45.148;39.604;2022-09-01T03:04:15;27.10;;;15.75;;
52031;SDS011;38044;45.148;39.604;2022-09-01T03:06:43;25.83;;;15.95;;
52031;SDS011;38044;45.148;39.604;2022-09-01T03:09:13;25.38;;;15.55;;
52031;SDS011;38044;45.148;39.604;2022-09-01T03:11:42;28.70;;;15.40;;
52031;SDS011;38044;45.148;39.604;2022-09-01T03:14:10;28.95;;;15.65;;
52031;SDS011;38044;45.148;39.604;2022-09-01T03:16:37;30.92;;;16.15;;
52031;SDS011;38044;45.148;39.604;2022-09-01T03:19:04;23.70;;;16.13;;
52031;SDS011;38044;45.148;39.604;2022-09-01T03:21:38;28.25;;;15.32;;
52031;SDS011;38044;45.148;39.604;2022-09-01T03:24:06;23.58;;;15.45;;
52031;SDS011;38044;45.148;39.604;2022-09-01T03:26:34;25.70;;;15.93;;
52031;SDS011;38044;45.148;39.604;2022-09-01T03:29:01;26.13;;;15.90;;
52031;SDS011;38044;45.148;39.604;2022-09-01T03:31:28;26.15;;;15.48;;
52031;SDS011;38044;45.148;39.604;2022-09-01T03:33:54;29.60;;;15.40;;
52031;SDS011;38044;45.148;39.604;2022-09-01T03:36:23;22.00;;;14.43;;
52031;SDS011;38044;45.148;39.604;2022-09-01T03:38:49;23.30;;;15.80;;
52031;SDS011;38044;45.148;39.604;2022-09-01T03:41:18;26.55;;;15.75;;
52031;SDS011;38044;45.148;39.604;2022-09-01T03:43:47;25.50;;;15.27;;
52031;SDS011;38044;45.148;39.604;2022-09-01T03:46:16;18.33;;;14.57;;
52031;SDS011;38044;45.148;39.604;2022-09-01T03:48:51;21.95;;;14.68;;
52031;SDS011;38044;45.148;39.604;2022-09-01T03:51:22;22.95;;;13.48;;
52031;SDS011;38044;45.148;39.604;2022-09-01T03:53:51;26.08;;;15.05;;
52031;SDS011;38044;45.148;39.604;2022-09-01T03:56:22;22.30;;;13.90;;
52031;SDS011;38044;45.148;39.604;2022-09-01T03:58:50;21.98;;;15.57;;
52031;SDS011;38044;45.148;39.604;2022-09-01T04:01:16;28.65;;;14.07;;
52031;SDS011;38044;45.148;39.604;2022-09-01T04:03:43;24.60;;;14.35;;
52031;SDS011;38044;45.148;39.604;2022-09-01T04:06:13;23.58;;;14.18;;
52031;SDS011;38044;45.148;39.604;2022-09-01T04:08:42;25.15;;;14.02;;
52031;SDS011;38044;45.148;39.604;2022-09-01T04:11:11;21.83;;;15.02;;
52031;SDS011;38044;45.148;39.604;2022-09-01T04:13:41;25.25;;;15.10;;
52031;SDS011;38044;45.148;39.604;2022-09-01T04:16:15;25.40;;;15.00;;
52031;SDS011;38044;45.148;39.604;2022-09-01T04:19:05;62.83;;;16.00;;
52031;SDS011;38044;45.148;39.604;2022-09-01T04:21:40;17.42;;;11.93;;
52031;SDS011;38044;45.148;39.604;2022-09-01T04:24:07;16.75;;;11.70;;
52031;SDS011;38044;45.148;39.604;2022-09-01T04:26:34;18.05;;;12.35;;
52031;SDS011;38044;45.148;39.604;2022-09-01T04:29:02;25.00;;;11.48;;
52031;SDS011;38044;45.148;39.604;2022-09-01T04:31:28;17.50;;;11.43;;
52031;SDS011;38044;45.148;39.604;2022-09-01T04:33:55;20.00;;;10.85;;
52031;SDS011;38044;45.148;39.604;2022-09-01T04:36:23;18.73;;;10.73;;
52031;SDS011;38044;45.148;39.604;2022-09-01T04:38:55;21.20;;;11.30;;
52031;SDS011;38044;45.148;39.604;2022-09-01T04:41:29;17.55;;;10.73;;
52031;SDS011;38044;45.148;39.604;2022-09-01T04:43:58;20.08;;;11.95;;
52031;SDS011;38044;45.148;39.604;2022-09-01T04:46:29;25.38;;;14.00;;
52031;SDS011;38044;45.148;39.604;2022-09-01T04:48:59;22.52;;;13.68;;
52031;SDS011;38044;45.148;39.604;2022-09-01T04:51:27;19.88;;;13.70;;
52031;SDS011;38044;45.148;39.604;2022-09-01T04:53:54;19.35;;;14.02;;
52031;SDS011;38044;45.148;39.604;2022-09-01T04:56:21;18.90;;;12.68;;
52031;SDS011;38044;45.148;39.604;2022-09-01T04:58:50;16.67;;;11.82;;
52031;SDS011;38044;45.148;39.604;2022-09-01T05:01:23;15.90;;;12.05;;
52031;SDS011;38044;45.148;39.604;2022-09-01T05:03:51;20.08;;;11.73;;
52031;SDS011;38044;45.148;39.604;2022-09-01T05:06:26;11.05;;;9.88;;
52031;SDS011;38044;45.148;39.604;2022-09-01T05:08:54;11.73;;;8.85;;
52031;SDS011;38044;45.148;39.604;2022-09-01T05:11:23;14.63;;;9.20;;
52031;SDS011;38044;45.148;39.604;2022-09-01T05:13:50;17.23;;;9.85;;
52031;SDS011;38044;45.148;39.604;2022-09-01T05:16:22;15.65;;;11.52;;
52031;SDS011;38044;45.148;39.604;2022-09-01T05:18:50;21.25;;;10.68;;
52031;SDS011;38044;45.148;39.604;2022-09-01T05:21:20;16.75;;;11.95;;
52031;SDS011;38044;45.148;39.604;2022-09-01T05:23:49;18.52;;;13.20;;
52031;SDS011;38044;45.148;39.604;2022-09-01T05:26:19;31.38;;;13.05;;
52031;SDS011;38044;45.148;39.604;2022-09-01T05:28:49;15.10;;;9.98;;
52031;SDS011;38044;45.148;39.604;2022-09-01T05:31:21;17.40;;;9.70;;
52031;SDS011;38044;45.148;39.604;2022-09-01T05:33:48;17.70;;;9.25;;
52031;SDS011;38044;45.148;39.604;2022-09-01T05:36:16;16.50;;;8.85;;
52031;SDS011;38044;45.148;39.604;2022-09-01T05:38:46;13.95;;;8.73;;
52031;SDS011;38044;45.148;39.604;2022-09-01T05:41:13;19.23;;;9.88;;
52031;SDS011;38044;45.148;39.604;2022-09-01T05:43:43;36.50;;;11.50;;
52031;SDS011;38044;45.148;39.604;2022-09-01T05:46:16;20.08;;;9.77;;
52031;SDS011;38044;45.148;39.604;2022-09-01T05:48:45;27.52;;;10.23;;
52031;SDS011;38044;45.148;39.604;2022-09-01T05:51:14;26.33;;;10.98;;
52031;SDS011;38044;45.148;39.604;2022-09-01T05:53:46;25.83;;;11.20;;
52031;SDS011;38044;45.148;39.604;2022-09-01T05:56:16;17.25;;;9.52;;
52031;SDS011;38044;45.148;39.604;2022-09-01T05:58:44;20.13;;;9.70;;
52031;SDS011;38044;45.148;39.604;2022-09-01T06:01:22;12.85;;;9.65;;
52031;SDS011;38044;45.148;39.604;2022-09-01T06:03:51;17.80;;;8.48;;
52031;SDS011;38044;45.148;39.604;2022-09-01T06:06:22;13.10;;;9.00;;
52031;SDS011;38044;45.148;39.604;2022-09-01T06:08:51;18.85;;;9.50;;
52031;SDS011;38044;45.148;39.604;2022-09-01T06:11:23;17.88;;;10.68;;
52031;SDS011;38044;45.148;39.604;2022-09-01T06:13:51;23.38;;;13.50;;
52031;SDS011;38044;45.148;39.604;2022-09-01T06:16:23;19.38;;;11.80;;
52031;SDS011;38044;45.148;39.604;2022-09-01T06:18:49;16.77;;;9.73;;
52031;SDS011;38044;45.148;39.604;2022-09-01T06:21:18;15.07;;;8.95;;
52031;SDS011;38044;45.148;39.604;2022-09-01T06:23:45;12.80;;;8.80;;
52031;SDS011;38044;45.148;39.604;2022-09-01T06:26:36;20.23;;;9.50;;
52031;SDS011;38044;45.148;39.604;2022-09-01T06:29:04;17.52;;;8.90;;
52031;SDS011;38044;45.148;39.604;2022-09-01T06:31:39;17.92;;;9.63;;
52031;SDS011;38044;45.148;39.604;2022-09-01T06:34:08;16.98;;;8.90;;
52031;SDS011;38044;45.148;39.604;2022-09-01T06:36:41;11.90;;;8.43;;
52031;SDS011;38044;45.148;39.604;2022-09-01T06:39:09;19.73;;;8.82;;
52031;SDS011;38044;45.148;39.604;2022-09-01T06:41:47;17.17;;;8.85;;
52031;SDS011;38044;45.148;39.604;2022-09-01T06:44:17;14.25;;;8.63;;
52031;SDS011;38044;45.148;39.604;2022-09-01T06:46:50;13.70;;;8.63;;
52031;SDS011;38044;45.148;39.604;2022-09-01T06:49:17;12.88;;;8.63;;
52031;SDS011;38044;45.148;39.604;2022-09-01T06:51:45;17.30;;;9.10;;
52031;SDS011;38044;45.148;39.604;2022-09-01T06:54:12;19.65;;;8.88;;
52031;SDS011;38044;45.148;39.604;2022-09-01T06:56:39;10.70;;;7.82;;
52031;SDS011;38044;45.148;39.604;2022-09-01T06:59:05;15.07;;;7.78;;
52031;SDS011;38044;45.148;39.604;2022-09-01T07:01:32;18.10;;;8.13;;
52031;SDS011;38044;45.148;39.604;2022-09-01T07:03:59;18.02;;;7.90;;
52031;SDS011;38044;45.148;39.604;2022-09-01T07:06:26;14.32;;;8.40;;
52031;SDS011;38044;45.148;39.604;2022-09-01T07:08:52;17.77;;;8.50;;
52031;SDS011;38044;45.148;39.604;2022-09-01T07:11:21;14.80;;;7.90;;
52031;SDS011;38044;45.148;39.604;2022-09-01T07:13:52;24.08;;;7.90;;
52031;SDS011;38044;45.148;39.604;2022-09-01T07:16:20;18.70;;;8.23;;
52031;SDS011;38044;45.148;39.604;2022-09-01T07:18:48;12.35;;;7.78;;
52031;SDS011;38044;45.148;39.604;2022-09-01T07:21:15;14.40;;;6.72;;
52031;SDS011;38044;45.148;39.604;2022-09-01T07:23:41;13.77;;;7.45;;
52031;SDS011;38044;45.148;39.604;2022-09-01T07:26:08;17.27;;;6.65;;
52031;SDS011;38044;45.148;39.604;2022-09-01T07:28:36;11.77;;;7.05;;
52031;SDS011;38044;45.148;39.604;2022-09-01T07:31:02;15.93;;;6.80;;
52031;SDS011;38044;45.148;39.604;2022-09-01T07:33:29;12.68;;;6.72;;
52031;SDS011;38044;45.148;39.604;2022-09-01T07:35:56;13.52;;;6.55;;
52031;SDS011;38044;45.148;39.604;2022-09-01T07:38:23;14.13;;;6.70;;
52031;SDS011;38044;45.148;39.604;2022-09-01T07:40:50;12.80;;;6.57;;
52031;SDS011;38044;45.148;39.604;2022-09-01T07:43:20;13.00;;;6.18;;
52031;SDS011;38044;45.148;39.604;2022-09-01T07:45:50;11.52;;;6.30;;
52031;SDS011;38044;45.148;39.604;2022-09-01T07:48:20;8.83;;;5.80;;
52031;SDS011;38044;45.148;39.604;2022-09-01T07:50:49;8.95;;;5.10;;
52031;SDS011;38044;45.148;39.604;2022-09-01T07:53:48;11.63;;;5.72;;
52031;SDS011;38044;45.148;39.604;2022-09-01T07:56:15;11.93;;;6.70;;
52031;SDS011;38044;45.148;39.604;2022-09-01T07:58:43;10.60;;;6.10;;
52031;SDS011;38044;45.148;39.604;2022-09-01T08:01:12;13.35;;;6.88;;
52031;SDS011;38044;45.148;39.604;2022-09-01T08:03:44;9.85;;;5.75;;
52031;SDS011;38044;45.148;39.604;2022-09-01T08:06:12;14.38;;;6.10;;
52031;SDS011;38044;45.148;39.604;2022-09-01T08:08:43;11.80;;;5.78;;
52031;SDS011;38044;45.148;39.604;2022-09-01T08:11:14;13.70;;;5.43;;
52031;SDS011;38044;45.148;39.604;2022-09-01T08:13:41;11.63;;;5.13;;
52031;SDS011;38044;45.148;39.604;2022-09-01T08:16:08;10.73;;;5.13;;
52031;SDS011;38044;45.148;39.604;2022-09-01T08:18:34;9.82;;;4.97;;
52031;SDS011;38044;45.148;39.604;2022-09-01T08:21:04;12.10;;;5.25;;
52031;SDS011;38044;45.148;39.604;2022-09-01T08:23:31;9.00;;;4.93;;
52031;SDS011;38044;45.148;39.604;2022-09-01T08:25:57;7.72;;;4.72;;
52031;SDS011;38044;45.148;39.604;2022-09-01T08:28:23;10.48;;;4.80;;
52031;SDS011;38044;45.148;39.604;2022-09-01T08:30:49;8.63;;;5.30;;
52031;SDS011;38044;45.148;39.604;2022-09-01T08:33:15;11.93;;;5.60;;
52031;SDS011;38044;45.148;39.604;2022-09-01T08:35:42;9.88;;;5.00;;
52031;SDS011;38044;45.148;39.604;2022-09-01T08:38:10;10.80;;;5.15;;
52031;SDS011;38044;45.148;39.604;2022-09-01T08:40:36;10.18;;;5.50;;
52031;SDS011;38044;45.148;39.604;2022-09-01T08:46:16;15.50;;;6.10;;
52031;SDS011;38044;45.148;39.604;2022-09-01T08:48:52;9.65;;;5.57;;
52031;SDS011;38044;45.148;39.604;2022-09-01T08:54:00;12.13;;;5.40;;
52031;SDS011;38044;45.148;39.604;2022-09-01T08:56:35;15.32;;;5.97;;
52031;SDS011;38044;45.148;39.604;2022-09-01T08:59:02;10.18;;;5.50;;
52031;SDS011;38044;45.148;39.604;2022-09-01T09:06:55;15.43;;;5.78;;
52031;SDS011;38044;45.148;39.604;2022-09-01T09:09:48;12.45;;;5.80;;
52031;SDS011;38044;45.148;39.604;2022-09-01T09:17:51;15.95;;;5.90;;
52031;SDS011;38044;45.148;39.604;2022-09-01T09:20:36;10.63;;;5.35;;
52031;SDS011;38044;45.148;39.604;2022-09-01T09:23:06;9.57;;;4.90;;
52031;SDS011;38044;45.148;39.604;2022-09-01T09:25:44;9.07;;;4.80;;
52031;SDS011;38044;45.148;39.604;2022-09-01T09:28:10;11.15;;;5.60;;
52031;SDS011;38044;45.148;39.604;2022-09-01T09:30:36;9.18;;;5.00;;
52031;SDS011;38044;45.148;39.604;2022-09-01T09:33:03;12.32;;;4.53;;
52031;SDS011;38044;45.148;39.604;2022-09-01T09:35:32;11.70;;;4.90;;
52031;SDS011;38044;45.148;39.604;2022-09-01T09:43:22;8.82;;;4.20;;
52031;SDS011;38044;45.148;39.604;2022-09-01T09:45:48;13.65;;;4.55;;
52031;SDS011;38044;45.148;39.604;2022-09-01T09:48:28;6.68;;;3.78;;
52031;SDS011;38044;45.148;39.604;2022-09-01T09:51:14;9.45;;;4.45;;
52031;SDS011;38044;45.148;39.604;2022-09-01T09:53:47;7.50;;;4.15;;
52031;SDS011;38044;45.148;39.604;2022-09-01T09:58:40;9.55;;;4.57;;
52031;SDS011;38044;45.148;39.604;2022-09-01T10:01:26;6.13;;;4.30;;
52031;SDS011;38044;45.148;39.604;2022-09-01T10:03:55;9.45;;;4.00;;
52031;SDS011;38044;45.148;39.604;2022-09-01T10:09:08;8.93;;;3.97;;
52031;SDS011;38044;45.148;39.604;2022-09-01T10:11:54;6.63;;;4.18;;
52031;SDS011;38044;45.148;39.604;2022-09-01T10:14:31;7.95;;;4.18;;
52031;SDS011;38044;45.148;39.604;2022-09-01T10:17:13;10.57;;;3.90;;
52031;SDS011;38044;45.148;39.604;2022-09-01T10:19:48;9.13;;;4.30;;
52031;SDS011;38044;45.148;39.604;2022-09-01T10:22:31;8.68;;;4.28;;
52031;SDS011;38044;45.148;39.604;2022-09-01T10:24:59;7.65;;;4.28;;
52031;SDS011;38044;45.148;39.604;2022-09-01T10:27:31;8.13;;;3.67;;
52031;SDS011;38044;45.148;39.604;2022-09-01T10:32:41;7.95;;;4.68;;
52031;SDS011;38044;45.148;39.604;2022-09-01T10:35:29;10.45;;;4.70;;
52031;SDS011;38044;45.148;39.604;2022-09-01T10:38:05;6.93;;;4.32;;
52031;SDS011;38044;45.148;39.604;2022-09-01T10:40:38;6.13;;;3.85;;
52031;SDS011;38044;45.148;39.604;2022-09-01T10:45:50;10.98;;;4.53;;
52031;SDS011;38044;45.148;39.604;2022-09-01T10:50:44;7.45;;;3.90;;
52031;SDS011;38044;45.148;39.604;2022-09-01T10:56:07;7.68;;;4.10;;
52031;SDS011;38044;45.148;39.604;2022-09-01T11:04:09;11.43;;;4.38;;
52031;SDS011;38044;45.148;39.604;2022-09-01T11:06:44;13.07;;;4.90;;
52031;SDS011;38044;45.148;39.604;2022-09-01T11:09:35;9.15;;;3.67;;
52031;SDS011;38044;45.148;39.604;2022-09-01T11:14:54;9.32;;;4.35;;
52031;SDS011;38044;45.148;39.604;2022-09-01T11:17:23;8.95;;;4.00;;
52031;SDS011;38044;45.148;39.604;2022-09-01T11:19:57;8.02;;;3.65;;
52031;SDS011;38044;45.148;39.604;2022-09-01T11:23:07;9.07;;;3.80;;
52031;SDS011;38044;45.148;39.604;2022-09-01T11:25:59;8.75;;;4.25;;
52031;SDS011;38044;45.148;39.604;2022-09-01T11:33:40;6.88;;;4.28;;
52031;SDS011;38044;45.148;39.604;2022-09-01T11:36:12;7.93;;;3.97;;
52031;SDS011;38044;45.148;39.604;2022-09-01T11:39:07;14.98;;;4.13;;
52031;SDS011;38044;45.148;39.604;2022-09-01T11:42:03;9.50;;;4.05;;
52031;SDS011;38044;45.148;39.604;2022-09-01T11:44:44;8.55;;;4.18;;
52031;SDS011;38044;45.148;39.604;2022-09-01T11:47:15;10.13;;;3.80;;
52031;SDS011;38044;45.148;39.604;2022-09-01T11:49:48;8.23;;;4.35;;
52031;SDS011;38044;45.148;39.604;2022-09-01T11:52:24;9.90;;;4.57;;
52031;SDS011;38044;45.148;39.604;2022-09-01T11:54:56;7.47;;;3.70;;
52031;SDS011;38044;45.148;39.604;2022-09-01T11:57:30;6.93;;;4.35;;
52031;SDS011;38044;45.148;39.604;2022-09-01T11:59:59;9.45;;;4.35;;
52031;SDS011;38044;45.148;39.604;2022-09-01T12:02:31;10.63;;;4.93;;
52031;SDS011;38044;45.148;39.604;2022-09-01T12:04:59;10.55;;;5.25;;
52031;SDS011;38044;45.148;39.604;2022-09-01T12:07:41;11.05;;;4.43;;
52031;SDS011;38044;45.148;39.604;2022-09-01T12:12:39;15.80;;;5.03;;
52031;SDS011;38044;45.148;39.604;2022-09-01T12:15:25;13.13;;;4.95;;
52031;SDS011;38044;45.148;39.604;2022-09-01T12:17:51;7.38;;;4.75;;
52031;SDS011;38044;45.148;39.604;2022-09-01T12:20:22;19.02;;;5.00;;
52031;SDS011;38044;45.148;39.604;2022-09-01T12:22:50;13.50;;;5.07;;
52031;SDS011;38044;45.148;39.604;2022-09-01T12:25:21;8.85;;;5.22;;
52031;SDS011;38044;45.148;39.604;2022-09-01T12:28:02;8.90;;;5.10;;
52031;SDS011;38044;45.148;39.604;2022-09-01T12:30:33;11.52;;;5.18;;
52031;SDS011;38044;45.148;39.604;2022-09-01T12:33:04;14.82;;;5.03;;
52031;SDS011;38044;45.148;39.604;2022-09-01T12:35:33;18.58;;;5.18;;
52031;SDS011;38044;45.148;39.604;2022-09-01T12:40:44;9.68;;;4.72;;
52031;SDS011;38044;45.148;39.604;2022-09-01T12:43:38;13.98;;;5.53;;
52031;SDS011;38044;45.148;39.604;2022-09-01T12:46:06;12.00;;;5.07;;
52031;SDS011;38044;45.148;39.604;2022-09-01T12:48:35;15.73;;;5.40;;
52031;SDS011;38044;45.148;39.604;2022-09-01T12:51:06;8.27;;;5.20;;
52031;SDS011;38044;45.148;39.604;2022-09-01T12:53:48;12.18;;;6.18;;
52031;SDS011;38044;45.148;39.604;2022-09-01T12:56:29;12.88;;;5.63;;
52031;SDS011;38044;45.148;39.604;2022-09-01T12:59:14;11.43;;;5.20;;
52031;SDS011;38044;45.148;39.604;2022-09-01T13:01:47;16.55;;;7.28;;
52031;SDS011;38044;45.148;39.604;2022-09-01T13:09:20;12.00;;;6.03;;
52031;SDS011;38044;45.148;39.604;2022-09-01T13:11:53;10.38;;;6.45;;
52031;SDS011;38044;45.148;39.604;2022-09-01T13:14:36;8.80;;;6.63;;
52031;SDS011;38044;45.148;39.604;2022-09-01T13:17:07;12.38;;;4.82;;
52031;SDS011;38044;45.148;39.604;2022-09-01T13:19:33;12.75;;;5.25;;
52031;SDS011;38044;45.148;39.604;2022-09-01T13:21:59;11.07;;;5.45;;
52031;SDS011;38044;45.148;39.604;2022-09-01T13:24:25;10.15;;;4.95;;
52031;SDS011;38044;45.148;39.604;2022-09-01T13:26:51;9.18;;;4.43;;
52031;SDS011;38044;45.148;39.604;2022-09-01T13:29:21;15.02;;;4.95;;
52031;SDS011;38044;45.148;39.604;2022-09-01T13:31:48;9.13;;;4.60;;
52031;SDS011;38044;45.148;39.604;2022-09-01T13:34:14;9.88;;;4.57;;
52031;SDS011;38044;45.148;39.604;2022-09-01T13:36:40;13.00;;;5.78;;
52031;SDS011;38044;45.148;39.604;2022-09-01T13:39:06;11.55;;;4.65;;
52031;SDS011;38044;45.148;39.604;2022-09-01T13:41:32;9.23;;;4.45;;
52031;SDS011;38044;45.148;39.604;2022-09-01T13:43:58;11.25;;;4.68;;
52031;SDS011;38044;45.148;39.604;2022-09-01T13:46:24;11.88;;;4.95;;
52031;SDS011;38044;45.148;39.604;2022-09-01T13:48:50;11.05;;;4.88;;
52031;SDS011;38044;45.148;39.604;2022-09-01T13:51:23;9.35;;;4.43;;
52031;SDS011;38044;45.148;39.604;2022-09-01T13:53:50;10.43;;;4.45;;
52031;SDS011;38044;45.148;39.604;2022-09-01T13:56:17;10.50;;;4.97;;
52031;SDS011;38044;45.148;39.604;2022-09-01T13:58:42;9.23;;;4.65;;
52031;SDS011;38044;45.148;39.604;2022-09-01T14:01:08;10.52;;;4.90;;
52031;SDS011;38044;45.148;39.604;2022-09-01T14:03:35;10.43;;;4.85;;
52031;SDS011;38044;45.148;39.604;2022-09-01T14:06:01;10.45;;;5.40;;
52031;SDS011;38044;45.148;39.604;2022-09-01T14:08:26;15.23;;;4.93;;
52031;SDS011;38044;45.148;39.604;2022-09-01T14:10:52;10.82;;;5.00;;
52031;SDS011;38044;45.148;39.604;2022-09-01T14:13:19;10.77;;;4.95;;
52031;SDS011;38044;45.148;39.604;2022-09-01T14:15:46;17.17;;;6.10;;
52031;SDS011;38044;45.148;39.604;2022-09-01T14:18:13;12.02;;;5.40;;
52031;SDS011;38044;45.148;39.604;2022-09-01T14:20:41;12.10;;;5.20;;
52031;SDS011;38044;45.148;39.604;2022-09-01T14:23:10;13.02;;;4.97;;
52031;SDS011;38044;45.148;39.604;2022-09-01T14:25:42;13.35;;;5.55;;
52031;SDS011;38044;45.148;39.604;2022-09-01T14:28:09;10.50;;;4.43;;
52031;SDS011;38044;45.148;39.604;2022-09-01T14:30:35;11.13;;;5.13;;
52031;SDS011;38044;45.148;39.604;2022-09-01T14:33:02;9.45;;;5.18;;
52031;SDS011;38044;45.148;39.604;2022-09-01T14:35:28;13.75;;;5.68;;
52031;SDS011;38044;45.148;39.604;2022-09-01T14:37:57;13.20;;;5.63;;
52031;SDS011;38044;45.148;39.604;2022-09-01T14:40:25;13.00;;;4.60;;
52031;SDS011;38044;45.148;39.604;2022-09-01T14:42:57;13.02;;;5.68;;
52031;SDS011;38044;45.148;39.604;2022-09-01T14:45:25;12.52;;;5.95;;
52031;SDS011;38044;45.148;39.604;2022-09-01T14:47:54;13.73;;;6.68;;
52031;SDS011;38044;45.148;39.604;2022-09-01T14:50:23;19.33;;;7.30;;
52031;SDS011;38044;45.148;39.604;2022-09-01T14:52:51;17.85;;;7.28;;
52031;SDS011;38044;45.148;39.604;2022-09-01T14:55:22;17.58;;;7.53;;
52031;SDS011;38044;45.148;39.604;2022-09-01T14:57:50;18.45;;;7.50;;
52031;SDS011;38044;45.148;39.604;2022-09-01T15:00:17;14.05;;;5.97;;
52031;SDS011;38044;45.148;39.604;2022-09-01T15:02:43;14.80;;;6.22;;
52031;SDS011;38044;45.148;39.604;2022-09-01T15:05:10;12.65;;;7.10;;
52031;SDS011;38044;45.148;39.604;2022-09-01T15:07:37;16.83;;;7.82;;
52031;SDS011;38044;45.148;39.604;2022-09-01T15:10:04;14.23;;;8.32;;
52031;SDS011;38044;45.148;39.604;2022-09-01T15:12:32;17.40;;;9.88;;
52031;SDS011;38044;45.148;39.604;2022-09-01T15:14:58;24.98;;;11.30;;
52031;SDS011;38044;45.148;39.604;2022-09-01T15:17:25;28.75;;;11.18;;
52031;SDS011;38044;45.148;39.604;2022-09-01T15:19:53;25.40;;;12.40;;
52031;SDS011;38044;45.148;39.604;2022-09-01T15:22:19;32.80;;;14.98;;
52031;SDS011;38044;45.148;39.604;2022-09-01T15:24:45;31.63;;;13.57;;
52031;SDS011;38044;45.148;39.604;2022-09-01T15:27:11;23.88;;;13.40;;
52031;SDS011;38044;45.148;39.604;2022-09-01T15:29:37;30.08;;;11.93;;
52031;SDS011;38044;45.148;39.604;2022-09-01T15:32:12;25.80;;;9.55;;
52031;SDS011;38044;45.148;39.604;2022-09-01T15:34:40;16.65;;;8.27;;
52031;SDS011;38044;45.148;39.604;2022-09-01T15:37:06;14.88;;;8.23;;
52031;SDS011;38044;45.148;39.604;2022-09-01T15:39:33;22.40;;;9.82;;
52031;SDS011;38044;45.148;39.604;2022-09-01T15:41:58;19.42;;;9.65;;